Time;durP1;ratioP1;P1;durP2;ratioP2;P2;SDS_P1;SDS_P2;PMS_P1;PMS_P2;Temp;Humidity;BMP_temperature;BMP_pressure;BME280_temperature;BME280_humidity;BME280_pressure;Samples;Min_cycle;Max_cycle;Signal;HPM_P1;HPM_P2
2022/05/07 00:00:02;;;;;;;4.97;4.25;;;;;;;11.15;64.15;99540.47;2622950;47;20027;-64
2022/05/07 00:02:34;;;;;;;7.07;4.28;;;;;;;11.01;64.96;99539.41;2623882;54;20057;-63
2022/05/07 00:05:04;;;;;;;5.05;4.28;;;;;;;11.00;65.06;99544.91;2623419;47;20540;-63
2022/05/07 00:07:34;;;;;;;5.45;4.53;;;;;;;11.00;65.57;99543.06;2623094;54;20035;-64
2022/05/07 00:10:07;;;;;;;7.43;3.58;;;;;;;11.08;65.02;99540.34;2622129;39;20438;-63
2022/05/07 00:12:37;;;;;;;4.30;3.90;;;;;;;11.15;64.70;99540.47;2620840;54;20034;-63
2022/05/07 00:15:07;;;;;;;6.50;3.85;;;;;;;11.12;64.91;99539.00;2621503;54;20045;-62
2022/05/07 00:20:29;;;;;;;5.38;4.80;;;;;;;11.11;65.06;99536.56;2622842;54;20085;-63
2022/05/07 00:22:59;;;;;;;5.57;4.45;;;;;;;11.18;65.15;99539.28;2623424;54;20038;-62
2022/05/07 00:25:32;;;;;;;5.38;4.55;;;;;;;11.18;65.28;99528.69;2623507;54;20031;-63
2022/05/07 00:28:02;;;;;;;7.00;4.55;;;;;;;11.32;64.91;99533.22;2623851;54;20566;-63
2022/05/07 00:30:31;;;;;;;7.38;4.80;;;;;;;11.36;64.70;99529.22;2624143;54;20027;-63
2022/05/07 00:33:01;;;;;;;8.52;4.78;;;;;;;11.31;65.02;99526.28;2623544;54;20031;-63
2022/05/07 00:35:31;;;;;;;7.57;5.82;;;;;;;11.24;64.83;99530.66;2623154;54;20034;-65
2022/05/07 00:38:00;;;;;;;10.60;4.72;;;;;;;11.13;65.15;99521.31;2622745;47;20085;-63
2022/05/07 00:40:33;;;;;;;7.70;5.07;;;;;;;11.02;65.63;99532.28;2623525;47;20073;-64
2022/05/07 00:43:02;;;;;;;8.77;4.82;;;;;;;10.97;65.64;99527.53;2623409;54;20030;-67
2022/05/07 00:45:32;;;;;;;5.47;4.57;;;;;;;10.95;65.89;99526.09;2623892;54;20043;-64
2022/05/07 00:48:02;;;;;;;7.60;4.88;;;;;;;10.87;65.72;99530.44;2622842;47;20121;-63
2022/05/07 00:53:14;;;;;;;8.00;4.85;;;;;;;10.62;66.22;99535.06;2622757;54;20030;-65
2022/05/07 00:55:47;;;;;;;5.60;4.10;;;;;;;10.57;66.50;99529.50;2622913;47;20030;-63
2022/05/07 00:58:17;;;;;;;5.28;4.78;;;;;;;10.49;67.10;99518.97;2623039;54;20034;-65
2022/05/07 01:00:47;;;;;;;6.25;5.07;;;;;;;10.37;67.55;99525.66;2622878;47;20041;-64
2022/05/07 01:03:17;;;;;;;6.10;4.43;;;;;;;10.30;67.39;99524.69;2623304;54;20034;-63
2022/05/07 01:05:47;;;;;;;7.57;4.68;;;;;;;10.26;67.83;99518.91;2623615;54;20038;-64
2022/05/07 01:08:18;;;;;;;7.32;4.72;;;;;;;10.37;67.82;99531.75;2622723;54;20086;-64
2022/05/07 01:10:52;;;;;;;8.55;4.90;;;;;;;10.46;67.30;99524.59;2623937;39;20529;-65
2022/05/07 01:13:24;;;;;;;4.45;4.05;;;;;;;10.45;67.75;99522.09;2624682;31;20491;-63
2022/05/07 01:15:58;;;;;;;5.05;4.13;;;;;;;10.37;67.51;99520.38;2622369;54;20026;-63
2022/05/07 01:18:32;;;;;;;6.43;4.43;;;;;;;10.35;67.44;99525.81;2621521;47;20034;-62
2022/05/07 01:21:09;;;;;;;5.88;4.63;;;;;;;10.26;67.34;99518.91;2621780;39;20438;-63
2022/05/07 01:23:39;;;;;;;8.50;4.57;;;;;;;10.22;67.88;99520.22;2621006;54;20122;-64
2022/05/07 01:26:10;;;;;;;6.70;4.70;;;;;;;10.36;67.98;99519.50;2622434;47;20062;-63
2022/05/07 01:28:41;;;;;;;5.95;4.80;;;;;;;10.41;67.79;99519.84;2622221;39;20438;-62
2022/05/07 01:31:12;;;;;;;6.35;5.20;;;;;;;10.33;67.80;99517.25;2622165;54;20034;-62
2022/05/07 01:33:42;;;;;;;8.82;4.85;;;;;;;10.33;67.31;99519.06;2622326;54;20078;-63
2022/05/07 01:36:19;;;;;;;5.93;5.10;;;;;;;10.14;67.67;99512.34;2622426;47;20022;-63
2022/05/07 01:38:56;;;;;;;4.75;4.05;;;;;;;10.02;67.65;99513.72;2620797;47;20030;-64
2022/05/07 01:41:26;;;;;;;7.03;4.70;;;;;;;9.99;68.30;99514.06;2620532;46;20050;-63
2022/05/07 01:43:58;;;;;;;6.75;4.22;;;;;;;9.93;67.74;99516.38;2620492;47;20037;-63
2022/05/07 01:49:14;;;;;;;6.85;4.90;;;;;;;9.77;68.33;99508.53;2620835;39;20516;-63
2022/05/07 01:51:47;;;;;;;6.43;4.85;;;;;;;9.73;68.50;99506.41;2619981;47;20030;-63
2022/05/07 01:54:17;;;;;;;6.93;4.72;;;;;;;9.66;68.53;99506.25;2619898;54;20031;-63
2022/05/07 01:56:52;;;;;;;9.52;5.03;;;;;;;9.66;68.34;99511.53;2620004;54;20042;-64
2022/05/07 01:59:21;;;;;;;6.88;5.20;;;;;;;9.59;69.12;99510.53;2621204;39;20447;-63
2022/05/07 02:01:53;;;;;;;4.28;3.88;;;;;;;9.51;69.02;99515.84;2620140;54;20034;-63
2022/05/07 02:04:23;;;;;;;5.25;4.22;;;;;;;9.56;68.82;99518.81;2620107;47;20030;-63
2022/05/07 02:06:55;;;;;;;5.95;4.95;;;;;;;9.56;68.98;99524.09;2620509;54;20030;-63
2022/05/07 02:09:26;;;;;;;6.57;4.15;;;;;;;9.51;69.15;99515.84;2620180;47;20027;-64
2022/05/07 02:11:56;;;;;;;6.40;4.45;;;;;;;9.55;69.08;99515.38;2620253;39;20399;-63
2022/05/07 02:14:29;;;;;;;7.20;4.75;;;;;;;9.55;68.92;99511.88;2620293;54;20033;-62
2022/05/07 02:16:59;;;;;;;5.70;4.10;;;;;;;9.45;68.62;99516.53;2619675;51;20126;-63
2022/05/07 02:19:32;;;;;;;5.70;4.50;;;;;;;9.42;69.04;99523.78;2621319;54;20078;-63
2022/05/07 02:22:05;;;;;;;7.57;4.47;;;;;;;9.37;69.01;99515.53;2620748;47;20053;-63
2022/05/07 02:24:34;;;;;;;5.13;4.38;;;;;;;9.34;69.24;99515.88;2621424;54;20030;-63
2022/05/07 02:27:07;;;;;;;4.43;4.03;;;;;;;9.37;69.58;99515.53;2620429;39;20431;-63
2022/05/07 02:29:37;;;;;;;6.28;3.80;;;;;;;9.35;69.37;99508.81;2621673;54;20030;-63
2022/05/07 02:32:07;;;;;;;4.45;3.85;;;;;;;9.33;68.82;99510.78;2623364;54;20042;-63
2022/05/07 02:34:44;;;;;;;5.75;4.68;;;;;;;9.32;69.21;99517.03;2623414;54;20167;-63
2022/05/07 02:37:25;;;;;;;9.18;4.25;;;;;;;9.30;69.06;99519.00;2623005;54;20527;-63
2022/05/07 02:39:56;;;;;;;;;;;;;;;9.27;69.47;99514.09;2624258;54;20037;-63
2022/05/07 02:42:33;;;;;;;4.85;4.18;;;;;;;9.26;69.03;99518.50;2623684;54;19976;-63
2022/05/07 02:45:12;;;;;;;4.57;4.00;;;;;;;9.22;69.19;99506.66;2623434;54;20034;-63
2022/05/07 02:47:44;;;;;;;5.68;4.03;;;;;;;9.17;69.00;99508.97;2623087;47;20030;-63
2022/05/07 02:50:16;;;;;;;4.78;4.13;;;;;;;9.10;69.35;99510.63;2622779;54;20035;-63
2022/05/07 02:52:48;;;;;;;6.97;3.92;;;;;;;9.05;69.73;99515.56;2623050;54;20035;-64
2022/05/07 02:55:18;;;;;;;5.53;3.92;;;;;;;9.10;69.85;99513.25;2624927;39;20474;-62
2022/05/07 02:57:52;;;;;;;6.55;4.72;;;;;;;9.12;69.73;99503.38;2622607;54;20034;-63
2022/05/07 03:00:24;;;;;;;7.72;4.10;;;;;;;9.03;69.53;99512.28;2622983;46;20054;-63
2022/05/07 03:02:54;;;;;;;6.50;4.70;;;;;;;9.03;69.42;99517.56;2623042;47;20558;-64
2022/05/07 03:05:29;;;;;;;;;;;;;;;8.95;69.52;99507.00;2622092;47;20129;-65
2022/05/07 03:08:01;;;;;;;5.63;4.30;;;;;;;8.95;69.84;99507.00;2622282;54;19946;-64
2022/05/07 03:10:35;;;;;;;5.20;4.00;;;;;;;8.91;69.65;99509.97;2622621;47;20066;-64
2022/05/07 03:13:05;;;;;;;7.47;3.75;;;;;;;8.91;69.82;99504.69;2623293;54;20041;-64
2022/05/07 03:15:35;;;;;;;4.85;4.07;;;;;;;8.99;69.83;99505.69;2622988;47;20038;-62
2022/05/07 03:18:12;;;;;;;6.75;4.00;;;;;;;9.00;69.30;99494.16;2622923;51;20048;-62
2022/05/07 03:20:42;;;;;;;4.47;4.07;;;;;;;9.00;69.28;99502.06;2623346;54;20034;-61
2022/05/07 03:23:21;;;;;;;4.30;3.90;;;;;;;8.99;69.81;99500.41;2623095;54;20057;-62
2022/05/07 03:25:58;;;;;;;6.78;4.45;;;;;;;8.96;69.29;99509.47;2622975;47;20034;-61
2022/05/07 03:28:27;;;;;;;7.03;3.67;;;;;;;8.84;69.45;99498.44;2622754;54;20041;-61
2022/05/07 03:30:57;;;;;;;5.15;4.40;;;;;;;8.74;69.51;99500.41;2623424;54;20162;-64
2022/05/07 03:33:28;;;;;;;5.35;4.85;;;;;;;8.65;69.71;99512.75;2622809;54;20038;-62
2022/05/07 03:35:58;;;;;;;6.13;4.38;;;;;;;8.56;69.99;99508.44;2623131;54;20090;-63
2022/05/07 03:38:30;;;;;;;7.05;3.80;;;;;;;8.55;70.26;99511.25;2622750;47;20034;-62
2022/05/07 03:41:06;;;;;;;4.82;3.72;;;;;;;8.62;70.43;99512.25;2623154;54;20558;-62
2022/05/07 03:43:40;;;;;;;4.55;3.95;;;;;;;8.75;70.50;99517.06;2622545;47;20037;-63
2022/05/07 03:46:10;;;;;;;6.47;4.30;;;;;;;8.90;70.21;99516.25;2622760;54;20034;-63
2022/05/07 03:48:49;;;;;;;5.90;4.63;;;;;;;9.01;69.35;99519.53;2622569;47;20034;-64
2022/05/07 03:51:19;;;;;;;6.13;4.75;;;;;;;8.86;68.87;99516.75;2623196;54;20023;-63
2022/05/07 03:53:49;;;;;;;5.90;4.30;;;;;;;8.73;69.67;99511.91;2623485;54;20186;-63
2022/05/07 03:56:25;;;;;;;5.82;4.47;;;;;;;8.64;69.88;99511.09;2622980;54;20555;-63
2022/05/07 03:58:55;;;;;;;5.28;4.25;;;;;;;8.68;70.12;99519.50;2622570;54;20023;-63
2022/05/07 04:01:40;;;;;;;5.80;4.63;;;;;;;8.71;70.15;99513.91;2622625;47;20022;-63
2022/05/07 04:04:11;;;;;;;5.07;4.50;;;;;;;8.73;69.88;99503.19;2622750;54;20026;-62
2022/05/07 04:06:41;;;;;;;5.25;3.67;;;;;;;8.75;70.31;99507.31;2623364;47;20022;-62
2022/05/07 04:09:13;;;;;;;6.28;4.28;;;;;;;8.84;70.39;99501.06;2623442;54;20050;-63
2022/05/07 04:11:43;;;;;;;4.97;4.47;;;;;;;8.77;69.22;99509.78;2623053;54;20557;-63
2022/05/07 04:14:13;;;;;;;5.78;4.68;;;;;;;8.66;70.06;99505.69;2623658;54;20041;-64
2022/05/07 04:16:42;;;;;;;7.93;4.25;;;;;;;8.73;70.45;99511.91;2621028;54;20033;-66
2022/05/07 04:19:15;;;;;;;4.53;4.07;;;;;;;8.80;69.46;99505.00;2618687;54;20023;-64
2022/05/07 04:21:46;;;;;;;5.43;4.45;;;;;;;8.80;69.37;99505.00;2620569;54;20041;-65
2022/05/07 04:24:24;;;;;;;6.57;5.00;;;;;;;8.83;69.49;99512.59;2618775;47;20027;-63
2022/05/07 04:26:56;;;;;;;7.20;4.40;;;;;;;8.80;69.02;99509.47;2617454;47;20037;-64
2022/05/07 04:29:27;;;;;;;5.00;3.92;;;;;;;8.75;69.45;99503.88;2618270;50;20033;-64
2022/05/07 04:32:11;;;;;;;9.50;5.03;;;;;;;8.78;68.96;99506.19;2618148;54;20030;-65
2022/05/07 04:34:41;;;;;;;4.80;4.20;;;;;;;8.68;69.19;99515.06;2618100;54;20042;-65
2022/05/07 04:37:10;;;;;;;5.20;4.45;;;;;;;8.65;69.21;99511.91;2619042;39;20501;-63
2022/05/07 04:39:43;;;;;;;5.68;4.70;;;;;;;8.61;69.78;99513.22;2618198;47;20681;-63
2022/05/07 04:42:14;;;;;;;8.52;3.97;;;;;;;8.72;70.12;99510.28;2618365;46;20029;-63
2022/05/07 04:44:48;;;;;;;6.70;4.90;;;;;;;8.87;69.53;99510.47;2618284;54;20069;-63
2022/05/07 04:47:25;;;;;;;8.25;5.35;;;;;;;8.99;69.56;99510.97;2617960;54;20039;-64
2022/05/07 04:49:56;;;;;;;9.60;7.03;;;;;;;9.07;69.01;99503.06;2618200;47;20046;-64
2022/05/07 04:52:34;;;;;;;6.88;5.07;;;;;;;9.13;69.07;99511.09;2618039;54;20035;-64
2022/05/07 04:55:07;;;;;;;6.47;5.00;;;;;;;9.29;68.78;99504.19;2617829;47;20038;-64
2022/05/07 04:57:37;;;;;;;9.17;6.63;;;;;;;9.34;68.20;99507.13;2617771;47;20023;-63
2022/05/07 05:00:10;;;;;;;9.45;5.47;;;;;;;9.38;68.62;99514.53;2617788;47;20280;-63
2022/05/07 05:02:55;;;;;;;16.00;11.07;;;;;;;9.55;68.19;99509.22;2618159;54;20061;-64
2022/05/07 05:05:29;;;;;;;6.72;5.88;;;;;;;9.56;67.62;99522.28;2618196;50;20022;-64
2022/05/07 05:08:13;;;;;;;6.13;5.03;;;;;;;9.47;67.50;99518.03;2618199;54;20064;-63
2022/05/07 05:10:45;;;;;;;5.68;4.93;;;;;;;9.54;67.99;99521.59;2622103;47;20030;-64
2022/05/07 05:13:16;;;;;;;16.75;11.30;;;;;;;9.67;67.84;99516.66;2622074;54;20077;-64
2022/05/07 05:15:50;;;;;;;17.67;12.55;;;;;;;9.74;67.38;99524.69;2621699;54;20034;-65
2022/05/07 05:18:31;;;;;;;11.73;6.50;;;;;;;9.85;66.74;99528.81;2619677;54;20037;-63
2022/05/07 05:21:01;;;;;;;9.80;7.57;;;;;;;9.97;67.21;99526.63;2619539;47;20026;-65
2022/05/07 05:23:47;;;;;;;8.00;5.15;;;;;;;10.11;66.59;99534.63;2620632;39;20441;-65
2022/05/07 05:26:20;;;;;;;6.57;5.50;;;;;;;10.15;66.75;99535.94;2620128;54;20034;-64
2022/05/07 05:28:54;;;;;;;8.13;6.35;;;;;;;10.22;66.33;99535.25;2619917;31;20476;-63
2022/05/07 05:31:24;;;;;;;7.25;5.80;;;;;;;10.20;66.25;99538.06;2620290;39;20441;-65
2022/05/07 05:34:01;;;;;;;7.13;5.47;;;;;;;10.23;66.23;99536.91;2621345;54;20157;-65
2022/05/07 05:36:36;;;;;;;8.88;5.47;;;;;;;10.29;65.98;99537.06;2622020;47;20034;-66
2022/05/07 05:39:07;;;;;;;8.32;4.80;;;;;;;10.29;66.12;99534.44;2622562;39;20415;-64
2022/05/07 05:41:42;;;;;;;6.05;5.43;;;;;;;10.40;66.42;99539.31;2622252;54;20034;-63
2022/05/07 05:44:12;;;;;;;20.55;15.70;;;;;;;10.53;65.63;99537.91;2621931;54;20034;-63
2022/05/07 05:46:41;;;;;;;23.35;16.13;;;;;;;10.53;65.39;99540.56;2620014;54;20057;-64
2022/05/07 05:49:12;;;;;;;8.18;5.53;;;;;;;10.51;64.96;99540.75;2618110;39;20453;-65
2022/05/07 05:51:44;;;;;;;5.65;5.03;;;;;;;10.56;65.98;99537.59;2618068;46;20030;-63
2022/05/07 05:54:15;;;;;;;5.75;4.93;;;;;;;10.70;65.97;99536.84;2618683;54;20039;-66
2022/05/07 05:56:48;;;;;;;10.70;8.38;;;;;;;10.84;65.69;99540.53;2617771;47;20029;-64
2022/05/07 05:59:18;;;;;;;8.65;5.88;;;;;;;10.93;65.38;99536.00;2618023;54;20027;-64
2022/05/07 06:01:55;;;;;;;10.55;6.95;;;;;;;11.05;64.55;99543.34;2617855;54;20026;-64
2022/05/07 06:04:44;;;;;;;9.75;6.57;;;;;;;11.08;64.92;99537.72;2622249;54;20050;-65
2022/05/07 06:07:21;;;;;;;8.70;5.88;;;;;;;11.18;64.14;99539.28;2621881;54;20031;-64
2022/05/07 06:09:55;;;;;;;7.22;5.82;;;;;;;11.11;64.04;99539.19;2621644;39;20426;-65
2022/05/07 06:12:29;;;;;;;13.82;7.18;;;;;;;11.26;64.66;99537.38;2618242;54;20022;-63
2022/05/07 06:14:59;;;;;;;8.05;6.10;;;;;;;11.49;64.59;99536.53;2617938;54;20030;-64
2022/05/07 06:17:32;;;;;;;9.15;6.32;;;;;;;11.65;63.76;99547.78;2617484;54;20057;-63
2022/05/07 06:20:03;;;;;;;8.43;6.22;;;;;;;11.83;63.58;99543.97;2617753;47;20027;-62
2022/05/07 06:22:37;;;;;;;7.85;7.10;;;;;;;11.96;62.78;99544.19;2618281;39;20419;-64
2022/05/07 06:28:01;;;;;;;12.18;9.02;;;;;;;12.00;62.52;99547.25;2617515;47;20035;-63
2022/05/07 06:30:37;;;;;;;14.65;8.95;;;;;;;12.03;62.69;99542.44;2617777;54;20030;-64
2022/05/07 06:33:11;;;;;;;10.45;9.30;;;;;;;12.17;62.95;99545.28;2617959;47;20027;-64
2022/05/07 06:35:47;;;;;;;9.10;7.78;;;;;;;12.30;62.37;99543.59;2617742;47;20046;-64
2022/05/07 06:38:22;;;;;;;8.38;6.90;;;;;;;12.42;62.23;99549.25;2617422;47;20030;-63
2022/05/07 06:40:56;;;;;;;9.23;8.32;;;;;;;12.56;62.33;99545.72;2618248;39;20419;-63
2022/05/07 06:43:28;;;;;;;10.30;9.20;;;;;;;12.63;61.10;99543.16;2618027;54;20053;-63
2022/05/07 06:46:19;;;;;;;9.27;8.38;;;;;;;12.58;61.51;99540.25;2617837;47;20030;-64
2022/05/07 06:49:00;;;;;;;9.43;8.45;;;;;;;12.64;61.59;99547.44;2617458;54;20023;-63
2022/05/07 06:51:40;;;;;;;10.30;8.50;;;;;;;12.74;61.20;99542.66;2617940;54;20549;-63
2022/05/07 06:54:10;;;;;;;9.77;8.63;;;;;;;12.83;61.39;99544.19;2618483;54;20026;-63
2022/05/07 06:56:39;;;;;;;12.90;8.75;;;;;;;12.97;61.44;99546.94;2618424;54;20053;-64
2022/05/07 06:59:12;;;;;;;9.45;7.85;;;;;;;13.02;61.00;99548.03;2618440;54;20057;-64
2022/05/07 07:01:42;;;;;;;9.43;8.43;;;;;;;13.14;60.87;99550.97;2622811;54;20031;-63
2022/05/07 07:04:12;;;;;;;10.85;9.13;;;;;;;13.26;61.18;99548.66;2619555;47;20283;-63
2022/05/07 07:06:42;;;;;;;13.68;9.15;;;;;;;13.46;60.34;99544.34;2618308;54;20039;-64
2022/05/07 07:09:11;;;;;;;10.18;9.13;;;;;;;13.58;59.93;99545.44;2617725;54;20039;-64
2022/05/07 07:11:41;;;;;;;11.35;9.32;;;;;;;13.59;60.37;99543.59;2618591;54;20034;-64
2022/05/07 07:14:14;;;;;;;12.73;9.10;;;;;;;13.68;60.70;99541.66;2618062;54;20091;-64
2022/05/07 07:16:44;;;;;;;11.63;9.68;;;;;;;13.79;60.44;99541.91;2618226;54;20119;-64
2022/05/07 07:19:16;;;;;;;11.25;9.27;;;;;;;13.91;60.23;99549.34;2618440;39;20438;-64
2022/05/07 07:21:45;;;;;;;11.13;9.98;;;;;;;14.01;59.98;99547.16;2618419;54;20085;-63
2022/05/07 07:24:15;;;;;;;10.57;9.48;;;;;;;14.16;59.22;99542.50;2618255;54;20042;-63
2022/05/07 07:26:45;;;;;;;10.00;9.07;;;;;;;14.31;59.04;99545.84;2617466;47;20150;-64
2022/05/07 07:29:17;;;;;;;11.35;9.30;;;;;;;14.48;58.22;99541.00;2617640;54;20062;-63
2022/05/07 07:31:46;;;;;;;9.52;8.52;;;;;;;14.65;58.13;99536.16;2618150;54;20543;-63
2022/05/07 07:34:16;;;;;;;10.10;8.20;;;;;;;14.79;57.33;99534.38;2617950;54;20061;-63
2022/05/07 07:36:46;;;;;;;11.10;7.70;;;;;;;14.84;57.38;99538.06;2618349;39;20467;-63
2022/05/07 07:39:16;;;;;;;10.43;9.00;;;;;;;14.91;56.87;99538.06;2619322;54;20034;-63
2022/05/07 07:41:46;;;;;;;11.07;8.82;;;;;;;15.09;56.97;99532.97;2619710;54;20106;-64
2022/05/07 07:44:18;;;;;;;10.77;7.25;;;;;;;15.15;56.58;99526.00;2618414;54;20058;-64
2022/05/07 07:49:29;;;;;;;10.13;8.77;;;;;;;15.45;55.97;99528.25;2618134;54;20037;-64
2022/05/07 07:51:59;;;;;;;14.35;8.13;;;;;;;15.64;55.05;99532.75;2618375;54;20085;-64
2022/05/07 07:54:28;;;;;;;14.25;8.05;;;;;;;15.79;54.55;99529.88;2618768;54;20041;-64
2022/05/07 07:57:02;;;;;;;8.32;7.03;;;;;;;15.77;53.96;99530.09;2618399;54;20089;-65
2022/05/07 07:59:36;;;;;;;7.93;6.15;;;;;;;15.88;54.31;99528.63;2618763;54;20026;-64
2022/05/07 08:02:06;;;;;;;8.80;7.13;;;;;;;16.04;54.06;99530.00;2618684;54;20030;-64
2022/05/07 08:04:36;;;;;;;9.77;6.88;;;;;;;16.13;54.32;99520.75;2618653;54;20060;-66
2022/05/07 08:12:36;;;;;;;6.85;6.20;;;;;;;16.24;53.13;99514.75;2619589;31;20526;-64
2022/05/07 08:15:11;;;;;;;8.45;6.22;;;;;;;16.26;53.57;99517.22;2618805;47;20487;-65
2022/05/07 08:17:40;;;;;;;7.13;5.57;;;;;;;16.32;53.54;99516.34;2618397;54;20034;-65
2022/05/07 08:20:11;;;;;;;6.38;5.35;;;;;;;16.52;53.21;99514.41;2618734;54;20558;-65
2022/05/07 08:22:40;;;;;;;6.03;5.43;;;;;;;16.74;52.32;99517.59;2618998;54;20554;-66
2022/05/07 08:25:11;;;;;;;6.05;5.40;;;;;;;16.86;52.65;99519.56;2618944;54;20031;-63
2022/05/07 08:27:47;;;;;;;7.60;6.07;;;;;;;16.93;52.53;99521.16;2618367;54;20550;-63
2022/05/07 08:30:25;;;;;;;8.85;5.40;;;;;;;17.04;52.45;99520.47;2619279;39;20426;-64
2022/05/07 08:32:55;;;;;;;9.10;5.72;;;;;;;17.12;51.46;99508.69;2618914;54;20049;-62
2022/05/07 08:35:24;;;;;;;8.35;5.20;;;;;;;17.20;51.77;99513.78;2618897;54;20026;-63
2022/05/07 08:37:54;;;;;;;8.90;5.28;;;;;;;17.31;51.57;99515.75;2618754;54;20038;-63
2022/05/07 08:40:26;;;;;;;6.32;4.88;;;;;;;17.41;51.41;99506.41;2619679;39;20435;-65
2022/05/07 08:42:56;;;;;;;7.22;4.93;;;;;;;17.61;51.23;99507.03;2619226;54;20041;-64
2022/05/07 08:45:28;;;;;;;5.30;4.20;;;;;;;17.83;50.70;99497.56;2619441;54;20062;-65
2022/05/07 08:47:58;;;;;;;3.72;3.15;;;;;;;17.99;49.06;99501.50;2619167;46;20054;-65
2022/05/07 08:50:28;;;;;;;4.03;3.00;;;;;;;18.19;46.94;99493.22;2619047;54;20027;-65
2022/05/07 08:52:57;;;;;;;6.63;2.78;;;;;;;18.36;44.56;99489.94;2618656;54;20037;-64
2022/05/07 08:55:27;;;;;;;3.58;3.15;;;;;;;18.47;43.87;99486.50;2618562;54;20054;-65
2022/05/07 08:57:57;;;;;;;3.88;1.88;;;;;;;18.55;41.20;99488.84;2618070;54;20065;-65
2022/05/07 09:00:30;;;;;;;5.35;4.85;;;;;;;18.56;41.55;99493.97;2618995;54;20030;-64
2022/05/07 09:03:02;;;;;;;2.93;2.63;;;;;;;18.69;40.63;99494.81;2619552;54;20721;-63
2022/05/07 09:05:37;;;;;;;2.92;2.25;;;;;;;18.69;41.95;99487.59;2618798;54;20263;-63
2022/05/07 09:08:10;;;;;;;3.53;2.50;;;;;;;18.88;41.17;99480.34;2618771;54;20039;-64
2022/05/07 09:10:41;;;;;;;3.20;2.45;;;;;;;19.00;40.54;99483.84;2621229;54;20038;-63
2022/05/07 09:13:13;;;;;;;2.53;2.05;;;;;;;19.04;40.67;99485.03;2619562;54;20039;-63
2022/05/07 09:15:56;;;;;;;2.13;1.63;;;;;;;19.25;39.26;99482.84;2619076;54;20034;-64
2022/05/07 09:18:28;;;;;;;2.30;1.80;;;;;;;19.21;37.72;99481.66;2618695;54;20038;-64
2022/05/07 09:23:46;;;;;;;3.25;2.13;;;;;;;19.15;38.80;99474.56;2619449;54;20034;-62
2022/05/07 09:26:29;;;;;;;3.40;2.00;;;;;;;19.37;37.78;99475.59;2619463;54;20031;-64
2022/05/07 09:29:00;;;;;;;4.47;2.10;;;;;;;19.51;37.70;99476.19;2619162;54;20060;-64
2022/05/07 09:31:35;;;;;;;2.65;1.85;;;;;;;19.57;38.48;99475.25;2618627;54;20041;-64
2022/05/07 09:36:55;;;;;;;1.80;1.70;;;;;;;19.75;37.58;99468.94;2618501;54;20566;-62
2022/05/07 09:39:25;;;;;;;2.97;2.03;;;;;;;19.69;37.46;99468.03;2618746;54;20034;-64
2022/05/07 09:41:58;;;;;;;2.97;1.83;;;;;;;19.80;35.76;99469.09;2622803;54;20034;-64
2022/05/07 09:44:29;;;;;;;3.28;1.92;;;;;;;19.85;33.59;99471.88;2621160;54;20566;-65
2022/05/07 09:47:01;;;;;;;4.28;2.33;;;;;;;19.98;33.54;99460.84;2618000;54;20077;-65
2022/05/07 09:49:33;;;;;;;2.90;2.10;;;;;;;20.07;33.46;99469.34;2618630;54;20033;-65
2022/05/07 09:52:06;;;;;;;4.10;2.38;;;;;;;20.25;34.45;99463.81;2618721;54;20089;-65
2022/05/07 10:00:06;;;;;;;3.72;2.22;;;;;;;20.67;35.97;99454.66;2618411;54;20077;-65
2022/05/07 10:03:00;;;;;;;4.28;2.15;;;;;;;20.77;35.57;99460.19;2618933;39;20372;-65
2022/05/07 10:05:46;;;;;;;4.10;2.60;;;;;;;20.86;33.88;99456.06;2618496;54;20037;-64
2022/05/07 10:08:27;;;;;;;2.30;1.90;;;;;;;20.86;33.63;99450.69;2617882;54;20038;-65
2022/05/07 10:10:59;;;;;;;2.47;1.65;;;;;;;20.98;33.07;99450.56;2618903;39;20446;-64
2022/05/07 10:13:29;;;;;;;5.45;2.38;;;;;;;21.07;32.65;99443.75;2618598;54;20035;-63
2022/05/07 10:16:02;;;;;;;5.38;2.20;;;;;;;21.18;32.86;99450.88;2621100;39;20434;-65
2022/05/07 10:18:41;;;;;;;5.40;2.10;;;;;;;21.32;32.78;99446.03;2619051;47;20030;-67
2022/05/07 10:21:15;;;;;;;5.10;2.60;;;;;;;21.39;31.26;99441.31;2619591;54;20038;-66
2022/05/07 10:23:53;;;;;;;5.15;2.53;;;;;;;21.29;30.98;99438.41;2618423;47;20034;-64
2022/05/07 10:26:25;;;;;;;4.95;2.60;;;;;;;21.38;31.01;99438.84;2617994;54;20035;-65
2022/05/07 10:28:55;;;;;;;3.35;2.10;;;;;;;21.49;30.88;99438.72;2618129;54;20038;-64
2022/05/07 10:31:26;;;;;;;5.80;2.25;;;;;;;21.52;30.97;99432.88;2618932;54;20046;-66
2022/05/07 10:33:59;;;;;;;2.78;2.10;;;;;;;21.64;31.16;99426.56;2619592;39;20375;-65
2022/05/07 10:36:36;;;;;;;4.05;2.70;;;;;;;21.63;30.40;99436.47;2618702;54;20037;-65
2022/05/07 10:39:09;;;;;;;4.28;2.20;;;;;;;21.38;31.36;99428.88;2618374;54;20526;-65
2022/05/07 10:41:48;;;;;;;;;;;;;;;21.42;31.43;99431.91;2618752;54;20042;-64
2022/05/07 10:44:31;;;;;;;3.90;2.15;;;;;;;21.41;31.32;99430.28;2618679;54;19938;-65
2022/05/07 10:47:11;;;;;;;4.25;1.98;;;;;;;21.44;32.21;99432.47;2618218;54;20037;-64
2022/05/07 10:50:12;;;;;;;5.00;2.28;;;;;;;21.57;31.81;99431.31;2618405;54;20073;-65
2022/05/07 10:52:42;;;;;;;3.42;1.70;;;;;;;21.35;31.48;99425.88;2617726;47;20043;-65
2022/05/07 10:55:16;;;;;;;6.57;2.00;;;;;;;21.25;32.00;99418.47;2618640;54;20037;-64
2022/05/07 10:57:47;;;;;;;4.72;2.00;;;;;;;21.20;31.67;99421.91;2617936;54;20041;-65
2022/05/07 11:00:19;;;;;;;3.53;2.22;;;;;;;21.26;31.38;99420.09;2618479;54;20030;-64
2022/05/07 11:02:51;;;;;;;3.45;1.88;;;;;;;21.30;31.98;99415.03;2618333;54;20130;-65
2022/05/07 11:05:32;;;;;;;3.88;2.05;;;;;;;21.38;31.48;99415.44;2618854;54;20034;-63
2022/05/07 11:08:03;;;;;;;4.47;2.03;;;;;;;21.39;30.96;99418.94;2617623;47;20046;-66
2022/05/07 11:10:33;;;;;;;3.97;2.00;;;;;;;21.30;31.51;99420.41;2618458;54;20038;-65
2022/05/07 11:13:09;;;;;;;5.13;2.40;;;;;;;21.35;31.83;99415.97;2618519;54;20581;-63
2022/05/07 11:15:39;;;;;;;4.20;2.45;;;;;;;21.54;30.95;99412.97;2618327;54;20035;-64
2022/05/07 11:18:15;;;;;;;5.15;2.20;;;;;;;21.54;31.49;99413.78;2617669;54;20042;-64
2022/05/07 11:20:49;;;;;;;3.00;2.30;;;;;;;21.68;31.33;99412.34;2618682;54;20029;-64
2022/05/07 11:23:20;;;;;;;2.80;2.55;;;;;;;21.65;30.57;99420.13;2618816;54;20035;-65
2022/05/07 11:25:52;;;;;;;3.72;2.38;;;;;;;21.38;31.36;99409.25;2618219;54;20039;-64
2022/05/07 11:28:22;;;;;;;3.70;2.05;;;;;;;21.21;31.84;99409.25;2618410;54;20027;-65
2022/05/07 11:30:53;;;;;;;5.80;2.25;;;;;;;21.28;31.23;99415.28;2618699;54;20034;-64
2022/05/07 11:33:26;;;;;;;8.52;2.55;;;;;;;21.45;31.49;99408.00;2618626;54;20035;-64
2022/05/07 11:36:08;;;;;;;5.88;2.90;;;;;;;21.61;30.78;99406.34;2618665;47;20033;-63
2022/05/07 11:38:39;;;;;;;6.00;2.33;;;;;;;21.65;30.95;99403.97;2618166;54;20038;-64
2022/05/07 11:41:14;;;;;;;3.97;2.38;;;;;;;21.67;30.94;99394.56;2617915;54;20056;-64
2022/05/07 11:46:54;;;;;;;20.10;8.95;;;;;;;21.55;30.25;99407.31;2618537;54;20032;-63
2022/05/07 11:49:33;;;;;;;5.25;3.30;;;;;;;21.57;30.61;99402.53;2618212;54;20535;-65
2022/05/07 11:52:10;;;;;;;4.88;2.60;;;;;;;21.72;30.87;99400.03;2618996;39;20464;-66
2022/05/07 11:54:51;;;;;;;13.95;10.77;;;;;;;21.87;30.26;99394.00;2619591;54;20038;-65
2022/05/07 11:57:30;;;;;;;7.65;3.38;;;;;;;22.04;30.11;99391.22;2619065;54;20053;-65
2022/05/07 12:00:14;;;;;;;2.97;2.63;;;;;;;22.21;30.39;99391.16;2618489;54;20038;-64
2022/05/07 12:02:51;;;;;;;5.80;2.60;;;;;;;22.16;30.37;99394.59;2619291;31;20533;-64
2022/05/07 12:05:21;;;;;;;7.68;2.50;;;;;;;21.95;30.56;99387.34;2618300;54;20023;-64
2022/05/07 12:07:54;;;;;;;3.33;2.47;;;;;;;21.96;30.79;99397.88;2617924;54;20037;-64
2022/05/07 12:10:25;;;;;;;4.07;2.65;;;;;;;22.20;30.38;99394.91;2618411;54;20038;-65
2022/05/07 12:12:54;;;;;;;3.67;2.65;;;;;;;22.10;29.07;99392.09;2617652;47;20034;-65
2022/05/07 12:18:07;;;;;;;5.18;2.38;;;;;;;22.49;29.11;99385.50;2618008;54;20038;-66
2022/05/07 12:20:38;;;;;;;4.93;2.20;;;;;;;22.56;28.59;99379.09;2618328;54;20109;-64
2022/05/07 12:31:16;;;;;;;3.72;2.65;;;;;;;22.91;28.25;99371.31;2618935;46;20053;-63
2022/05/07 12:33:46;;;;;;;3.20;2.13;;;;;;;22.90;28.30;99371.50;2618857;39;20421;-65
2022/05/07 12:36:16;;;;;;;3.13;2.10;;;;;;;22.81;28.86;99370.38;2618255;54;20026;-64
2022/05/07 12:38:48;;;;;;;4.43;2.58;;;;;;;22.84;28.48;99367.16;2618433;54;20038;-63
2022/05/07 12:41:18;;;;;;;6.75;2.40;;;;;;;22.78;28.77;99366.34;2619194;54;20026;-64
2022/05/07 12:43:48;;;;;;;5.80;2.60;;;;;;;22.63;29.13;99358.13;2618417;47;20022;-65
2022/05/07 12:46:19;;;;;;;7.95;2.60;;;;;;;22.57;29.00;99359.94;2618901;54;20034;-65